createdAt,value
2019-04-22T00:02:17.505Z,10.54
2019-04-22T00:05:01.004Z,10.53
2019-04-22T00:07:41.975Z,10.52
2019-04-22T00:10:20.852Z,10.51
2019-04-22T00:12:49.992Z,10.47
2019-04-22T00:15:09.778Z,10.47
2019-04-22T00:17:55.095Z,10.47
2019-04-22T00:20:35.471Z,10.46
2019-04-22T00:22:52.568Z,10.46
2019-04-22T00:27:56.467Z,10.28
2019-04-22T00:30:36.043Z,10.21
2019-04-22T00:33:01.409Z,10.12
2019-04-22T00:35:31.819Z,9.98
2019-04-22T00:38:03.469Z,9.84
2019-04-22T00:40:38.413Z,9.61
2019-04-22T00:43:10.061Z,9.58
2019-04-22T00:45:38.720Z,9.62
2019-04-22T00:48:12.500Z,9.74
2019-04-22T00:50:40.225Z,9.82
2019-04-22T00:53:09.900Z,9.84
2019-04-22T00:56:00.534Z,9.86
2019-04-22T00:58:39.457Z,9.76
2019-04-22T01:01:07.867Z,9.76
2019-04-22T01:03:44.194Z,9.71
2019-04-22T01:06:12.284Z,9.67
2019-04-22T01:08:46.878Z,9.62
2019-04-22T01:11:13.449Z,9.58
2019-04-22T01:13:39.743Z,9.57
2019-04-22T01:16:15.322Z,9.51
2019-04-22T01:18:42.306Z,9.37
2019-04-22T01:21:24.391Z,9.31
2019-04-22T01:23:44.190Z,9.35
2019-04-22T01:26:11.297Z,9.35
2019-04-22T01:28:39.550Z,9.34
2019-04-22T01:31:04.730Z,9.33
2019-04-22T01:33:35.296Z,9.36
2019-04-22T01:36:21.420Z,9.37
2019-04-22T01:38:53.229Z,9.42
2019-04-22T01:41:32.437Z,9.32
2019-04-22T01:44:08.293Z,9.15
2019-04-22T01:46:33.047Z,9.05
2019-04-22T01:49:02.679Z,8.97
2019-04-22T01:51:50.024Z,8.97
2019-04-22T01:54:03.946Z,8.95
2019-04-22T01:56:33.349Z,8.79
2019-04-22T01:58:59.202Z,8.64
2019-04-22T02:01:37.420Z,8.54
2019-04-22T02:04:08.795Z,8.60
2019-04-22T02:06:43.605Z,8.75
2019-04-22T02:09:21.148Z,8.86
2019-04-22T02:11:46.560Z,8.93
2019-04-22T02:14:13.276Z,8.93
2019-04-22T02:16:41.262Z,8.94
2019-04-22T02:19:19.062Z,8.89
2019-04-22T02:21:42.866Z,8.82
2019-04-22T02:24:18.064Z,8.83
2019-04-22T02:26:58.211Z,8.84
2019-04-22T02:29:16.393Z,8.81
2019-04-22T02:31:51.052Z,8.73
2019-04-22T02:34:22.330Z,8.64
2019-04-22T02:36:50.881Z,8.47
2019-04-22T02:41:54.824Z,8.44
2019-04-22T02:51:52.574Z,8.62
2019-04-22T02:54:41.839Z,8.61
2019-04-22T02:57:03.206Z,8.55
2019-04-22T02:59:32.544Z,8.56
2019-04-22T03:02:23.452Z,8.49
2019-04-22T03:04:28.371Z,8.42
2019-04-22T03:06:55.602Z,8.45
2019-04-22T03:17:25.524Z,8.17
2019-04-22T03:19:59.201Z,8.01
2019-04-22T03:27:21.923Z,8.04
2019-04-22T03:33:06.494Z,7.93
2019-04-22T03:35:33.181Z,7.81
2019-04-22T03:37:49.223Z,7.91
2019-04-22T03:42:52.193Z,8.04
2019-04-22T03:52:50.191Z,8.30
2019-04-22T03:55:18.098Z,8.28
2019-04-22T03:57:50.062Z,8.25
2019-04-22T04:00:26.524Z,8.06
2019-04-22T04:02:53.893Z,8.00
2019-04-22T04:05:33.943Z,7.90
2019-04-22T04:07:55.205Z,7.86
2019-04-22T04:10:37.754Z,7.63
2019-04-22T04:12:56.541Z,7.49
2019-04-22T04:15:28.389Z,7.38
2019-04-22T04:20:28.745Z,7.30
2019-04-22T04:28:24.271Z,7.28
2019-04-22T04:30:36.136Z,7.38
2019-04-22T04:50:38.533Z,8.02
2019-04-22T04:53:12.445Z,8.01
2019-04-22T04:55:42.673Z,7.94
2019-04-22T04:58:25.188Z,7.78
2019-04-22T05:03:20.592Z,7.50
2019-04-22T05:05:47.588Z,7.40
2019-04-22T05:08:29.340Z,7.33
2019-04-22T05:13:39.383Z,7.33
2019-04-22T05:16:03.167Z,7.50
2019-04-22T05:23:25.516Z,8.00
2019-04-22T05:25:54.537Z,8.11
2019-04-22T05:28:17.848Z,8.05
2019-04-22T05:30:45.725Z,8.16
2019-04-22T05:33:21.438Z,8.17
2019-04-22T05:35:54.793Z,8.64
2019-04-22T05:38:30.236Z,8.92
2019-04-22T05:41:00.532Z,9.25
2019-04-22T05:43:21.604Z,9.52
2019-04-22T05:45:58.926Z,9.89
2019-04-22T05:48:34.970Z,9.90
2019-04-22T05:50:57.687Z,9.87
2019-04-22T05:53:25.965Z,9.77
2019-04-22T05:56:07.800Z,9.87
2019-04-22T05:58:41.499Z,10.03
2019-04-22T06:03:47.895Z,10.53
2019-04-22T06:06:15.096Z,11.05
2019-04-22T06:08:48.567Z,11.68
2019-04-22T06:11:24.442Z,12.28
2019-04-22T06:13:38.958Z,12.68
2019-04-22T06:16:23.654Z,12.99
2019-04-22T06:18:56.836Z,13.26
2019-04-22T06:21:31.196Z,13.52
2019-04-22T06:29:01.390Z,14.11
2019-04-22T06:31:32.747Z,14.40
2019-04-22T06:34:02.566Z,14.58
2019-04-22T06:39:03.874Z,15.00
2019-04-22T06:41:34.889Z,15.24
2019-04-22T06:44:04.376Z,15.42
2019-04-22T06:46:38.458Z,15.34
2019-04-22T06:49:11.108Z,15.54
2019-04-22T06:51:40.204Z,15.97
2019-04-22T06:54:07.653Z,16.29
2019-04-22T06:56:35.306Z,16.37
2019-04-22T06:59:11.629Z,16.58
2019-04-22T07:01:59.309Z,16.81
2019-04-22T07:04:09.292Z,17.10
2019-04-22T07:11:48.267Z,17.25
2019-04-22T07:14:09.273Z,17.67
2019-04-22T07:16:43.262Z,17.26
2019-04-22T07:19:18.074Z,17.90
2019-04-22T07:21:44.129Z,18.25
2019-04-22T07:26:54.553Z,18.34
2019-04-22T07:29:20.619Z,18.53
2019-04-22T07:31:55.686Z,18.52
2019-04-22T07:34:28.372Z,18.40
2019-04-22T07:37:02.981Z,18.57
2019-04-22T07:39:23.131Z,18.44
2019-04-22T07:41:59.168Z,19.07
2019-04-22T07:47:07.788Z,19.59
2019-04-22T07:49:35.002Z,19.76
2019-04-22T07:51:55.839Z,19.74
2019-04-22T07:54:39.719Z,19.95
2019-04-22T07:57:11.700Z,19.71
2019-04-22T07:59:35.298Z,19.86
2019-04-22T08:02:02.145Z,20.17
2019-04-22T08:04:56.014Z,20.08
2019-04-22T08:07:12.401Z,20.08
2019-04-22T08:09:44.560Z,20.68
2019-04-22T08:12:02.923Z,20.73
2019-04-22T08:14:40.912Z,21.22
2019-04-22T08:17:30.864Z,21.50
2019-04-22T08:19:42.025Z,21.18
2019-04-22T08:22:11.873Z,21.20
2019-04-22T08:24:51.295Z,21.44
2019-04-22T08:27:11.948Z,21.05
2019-04-22T08:29:52.376Z,20.98
2019-04-22T08:32:14.578Z,21.45
2019-04-22T08:34:43.610Z,21.88
2019-04-22T08:37:41.467Z,21.85
2019-04-22T08:39:49.998Z,22.30
2019-04-22T08:42:27.080Z,21.80
2019-04-22T08:45:09.418Z,22.32
2019-04-22T08:47:29.102Z,22.34
2019-04-22T08:49:56.903Z,22.15
2019-04-22T08:55:01.882Z,22.42
2019-04-22T08:57:40.806Z,22.29
2019-04-22T08:59:57.444Z,23.25
2019-04-22T09:04:53.738Z,23.48
2019-04-22T09:12:46.715Z,22.97
2019-04-22T09:14:57.820Z,23.35
2019-04-22T09:17:47.886Z,23.52
2019-04-22T09:20:04.663Z,23.56
2019-04-22T09:22:33.280Z,23.81
2019-04-22T09:25:03.726Z,24.65
2019-04-22T09:27:38.287Z,23.76
2019-04-22T09:30:10.317Z,24.00
2019-04-22T09:32:38.678Z,24.12
2019-04-22T09:35:25.412Z,24.41
2019-04-22T09:37:50.305Z,24.27
2019-04-22T09:40:22.440Z,24.94
2019-04-22T09:42:43.726Z,25.21
2019-04-22T09:45:13.063Z,24.43
2019-04-22T09:47:55.295Z,25.09
2019-04-22T09:50:15.060Z,25.55
2019-04-22T09:52:51.625Z,25.38
2019-04-22T09:55:19.742Z,25.15
2019-04-22T09:57:46.050Z,24.97
2019-04-22T10:00:13.834Z,24.93
2019-04-22T10:02:59.217Z,24.96
2019-04-22T10:05:21.107Z,25.75
2019-04-22T10:07:54.407Z,26.29
2019-04-22T10:10:20.495Z,27.13
2019-04-22T10:13:12.316Z,26.65
2019-04-22T10:15:26.729Z,26.14
2019-04-22T10:17:58.047Z,26.32
2019-04-22T10:20:26.953Z,26.33
2019-04-22T10:22:58.769Z,26.79
2019-04-22T10:25:29.856Z,26.82
2019-04-22T10:28:01.840Z,26.59
2019-04-22T10:30:39.180Z,26.55
2019-04-22T10:33:02.046Z,27.01
2019-04-22T10:35:17.139Z,27.01
2019-04-22T10:37:42.816Z,27.87
2019-04-22T10:40:28.060Z,26.73
2019-04-22T10:42:57.252Z,27.47
2019-04-22T10:45:27.991Z,26.71
2019-04-22T10:47:58.367Z,27.01
2019-04-22T10:50:39.426Z,26.42
2019-04-22T10:53:11.118Z,26.47
2019-04-22T10:55:43.460Z,26.65
2019-04-22T10:58:12.833Z,26.86
2019-04-22T11:00:42.921Z,25.88
2019-04-22T11:03:14.036Z,25.71
2019-04-22T11:05:44.300Z,25.35
2019-04-22T11:08:22.539Z,24.92
2019-04-22T11:11:03.604Z,24.93
2019-04-22T11:13:15.925Z,24.93
2019-04-22T11:15:46.643Z,25.04
2019-04-22T11:18:17.702Z,24.77
2019-04-22T11:20:49.537Z,25.13
2019-04-22T11:23:18.963Z,25.21
2019-04-22T11:25:48.136Z,25.48
2019-04-22T11:28:17.968Z,26.35
2019-04-22T11:30:48.223Z,27.15
2019-04-22T11:33:18.406Z,27.81
2019-04-22T11:35:48.026Z,27.22
2019-04-22T11:38:17.404Z,26.68
2019-04-22T11:40:51.744Z,26.23
2019-04-22T11:43:17.488Z,26.31
2019-04-22T11:45:47.137Z,26.61
2019-04-22T11:48:17.619Z,26.48
2019-04-22T11:50:48.109Z,27.14
2019-04-22T11:53:18.639Z,27.69
2019-04-22T11:55:49.046Z,28.02
2019-04-22T11:58:21.162Z,28.38
2019-04-22T12:00:50.114Z,28.55
2019-04-22T12:03:21.043Z,28.76
2019-04-22T12:05:50.358Z,28.81
2019-04-22T12:08:20.811Z,29.23
2019-04-22T12:10:54.854Z,29.03
2019-04-22T12:13:21.863Z,28.78
2019-04-22T12:15:51.277Z,28.82
2019-04-22T12:18:22.877Z,28.96
2019-04-22T12:20:53.094Z,28.95
2019-04-22T12:23:23.145Z,27.26
2019-04-22T12:26:01.288Z,28.36
2019-04-22T12:28:23.320Z,27.85
2019-04-22T12:30:53.519Z,27.88
2019-04-22T12:33:23.481Z,28.36
2019-04-22T12:35:52.877Z,27.84
2019-04-22T12:38:22.248Z,27.22
2019-04-22T12:40:58.519Z,27.59
2019-04-22T12:43:24.574Z,27.07
2019-04-22T12:45:54.292Z,27.19
2019-04-22T12:48:23.583Z,27.37
2019-04-22T12:50:56.250Z,28.17
2019-04-22T12:53:27.489Z,28.10
2019-04-22T12:55:55.476Z,28.68
2019-04-22T12:58:25.655Z,28.10
2019-04-22T13:00:54.859Z,27.63
2019-04-22T13:03:24.492Z,27.24
2019-04-22T13:05:53.995Z,26.53
2019-04-22T13:08:23.560Z,26.39
2019-04-22T13:10:59.366Z,26.11
2019-04-22T13:13:25.102Z,25.71
2019-04-22T13:15:55.045Z,25.68
2019-04-22T13:18:35.476Z,25.53
2019-04-22T13:20:56.671Z,25.49
2019-04-22T13:23:27.549Z,25.81
2019-04-22T13:25:56.827Z,26.14
2019-04-22T13:28:27.219Z,26.09
2019-04-22T13:30:58.501Z,26.28
2019-04-22T13:33:28.686Z,26.57
2019-04-22T13:35:59.326Z,26.62
2019-04-22T13:38:29.131Z,26.83
2019-04-22T13:41:14.046Z,27.18
2019-04-22T13:43:29.203Z,28.35
2019-04-22T13:45:58.504Z,28.45
2019-04-22T13:48:47.053Z,28.05
2019-04-22T13:51:32.433Z,28.51
2019-04-22T13:54:30.087Z,28.39
2019-04-22T13:56:19.470Z,28.43
2019-04-22T13:58:44.736Z,28.17
2019-04-22T14:01:06.966Z,28.10
2019-04-22T14:03:54.553Z,27.40
2019-04-22T14:06:25.063Z,27.48
2019-04-22T14:08:55.674Z,27.23
2019-04-22T14:11:34.445Z,27.32
2019-04-22T14:13:56.734Z,26.96
2019-04-22T14:16:27.017Z,26.21
2019-04-22T14:18:56.229Z,25.97
2019-04-22T14:21:25.419Z,25.76
2019-04-22T14:23:56.356Z,25.86
2019-04-22T14:26:27.085Z,25.54
2019-04-22T14:28:57.535Z,25.64
2019-04-22T14:31:26.892Z,25.67
2019-04-22T14:34:01.032Z,25.51
2019-04-22T14:36:27.551Z,25.52
2019-04-22T14:38:57.781Z,25.73
2019-04-22T14:41:40.321Z,26.18
2019-04-22T14:44:56.642Z,26.55
2019-04-22T14:46:58.673Z,27.14
2019-04-22T14:49:24.078Z,27.12
2019-04-22T14:52:02.068Z,27.32
2019-04-22T14:54:19.453Z,27.30
2019-04-22T14:56:34.144Z,27.63
2019-04-22T14:59:04.996Z,27.89
2019-04-22T15:01:35.303Z,27.78
2019-04-22T15:04:05.492Z,27.63
2019-04-22T15:06:36.107Z,27.34
2019-04-22T15:09:08.023Z,26.95
2019-04-22T15:11:52.563Z,26.24
2019-04-22T15:14:09.642Z,25.75
2019-04-22T15:16:57.168Z,25.87
2019-04-22T15:19:38.002Z,25.74
2019-04-22T15:22:08.445Z,25.74
2019-04-22T15:24:38.783Z,25.70
2019-04-22T15:27:08.756Z,25.29
2019-04-22T15:29:39.071Z,25.09
2019-04-22T15:32:09.348Z,24.98
2019-04-22T15:34:39.526Z,24.86
2019-04-22T15:37:08.929Z,24.73
2019-04-22T15:39:39.445Z,24.66
2019-04-22T15:42:14.586Z,24.82
2019-04-22T15:44:40.023Z,24.87
2019-04-22T15:47:09.353Z,24.76
2019-04-22T15:49:39.987Z,24.50
2019-04-22T15:52:10.419Z,24.51
2019-04-22T15:54:39.788Z,24.47
2019-04-22T15:57:08.992Z,24.54
2019-04-22T15:59:53.785Z,24.53
2019-04-22T16:02:10.048Z,24.57
2019-04-22T16:04:41.143Z,24.75
2019-04-22T16:07:10.893Z,24.74
2019-04-22T16:09:41.621Z,24.85
2019-04-22T16:12:19.430Z,24.57
2019-04-22T16:14:47.360Z,24.52
2019-04-22T16:17:12.850Z,24.39
2019-04-22T16:19:43.273Z,24.41
2019-04-22T16:22:18.266Z,24.60
2019-04-22T16:24:56.270Z,24.61
2019-04-22T16:27:26.868Z,24.72
2019-04-22T16:29:57.181Z,25.09
2019-04-22T22:39:07.546Z,16.84
2019-04-22T22:41:27.933Z,16.79
2019-04-22T22:44:06.959Z,16.73
2019-04-22T22:46:37.398Z,16.71
2019-04-22T22:49:23.348Z,16.67
2019-04-22T22:51:57.607Z,16.64
2019-04-22T22:54:26.956Z,16.60
2019-04-22T22:57:01.968Z,16.52
2019-04-22T22:59:27.655Z,16.46
2019-04-22T23:01:54.579Z,16.42
2019-04-22T23:04:32.958Z,16.42
2019-04-22T23:07:09.355Z,16.36
2019-04-22T23:09:33.415Z,16.31
2019-04-22T23:14:32.706Z,16.24
2019-04-22T23:16:52.903Z,16.16
2019-04-22T23:19:15.488Z,16.11
2019-04-22T23:21:49.475Z,16.07
2019-04-22T23:24:48.187Z,16.07
2019-04-22T23:27:26.220Z,16.01
2019-04-22T23:30:15.938Z,15.96
2019-04-22T23:32:58.120Z,15.90
2019-04-22T23:35:49.388Z,15.87
2019-04-22T23:38:20.620Z,15.80
2019-04-22T23:40:55.564Z,15.76
2019-04-22T23:43:34.296Z,15.72
2019-04-22T23:46:02.396Z,15.66
2019-04-22T23:48:27.211Z,15.65
2019-04-22T23:51:04.453Z,15.58
2019-04-22T23:53:57.973Z,15.53
2019-04-22T23:56:06.097Z,15.49
